createdAt,value
2022-12-15T00:00:38.943Z,98391.94
2022-12-15T00:03:37.657Z,98370.66
2022-12-15T00:06:28.678Z,98342.47
2022-12-15T00:09:20.608Z,98387.63
2022-12-15T00:12:14.262Z,98402.78
2022-12-15T00:18:17.376Z,98354.28
2022-12-15T00:24:36.540Z,98344.28
2022-12-15T00:27:35.627Z,98395.50
2022-12-15T00:30:50.033Z,98368.19
2022-12-15T00:33:51.901Z,98397.00
2022-12-15T00:37:01.948Z,98368.88
2022-12-15T00:39:42.879Z,98389.72
2022-12-15T00:42:37.192Z,98383.16
2022-12-15T00:48:47.286Z,98406.09
2022-12-15T00:51:37.359Z,98405.03
2022-12-15T00:58:22.761Z,98422.56
2022-12-15T01:01:46.729Z,98315.66
2022-12-15T01:04:55.038Z,98416.78
2022-12-15T01:07:49.661Z,98411.34
2022-12-15T01:11:02.087Z,98417.47
2022-12-15T01:13:57.443Z,98424.03
2022-12-15T01:16:50.770Z,98419.66
2022-12-15T01:19:46.166Z,98427.41
2022-12-15T01:22:30.155Z,98421.53
2022-12-15T01:25:21.151Z,98414.91
2022-12-15T01:31:09.869Z,98416.63
2022-12-15T01:34:13.478Z,98425.06
2022-12-15T01:36:52.841Z,98415.00
2022-12-15T01:40:06.029Z,98417.69
2022-12-15T01:42:45.149Z,98410.22
2022-12-15T01:46:07.453Z,98415.38
2022-12-15T01:48:50.489Z,98384.84
2022-12-15T01:51:50.358Z,98393.69
2022-12-15T01:54:49.531Z,98402.78
2022-12-15T01:57:38.990Z,98391.16
2022-12-15T02:00:23.979Z,98392.97
2022-12-15T02:06:06.590Z,98390.72
2022-12-15T02:08:54.706Z,98397.63
2022-12-15T02:12:16.303Z,98387.63
2022-12-15T02:15:46.567Z,98392.06
2022-12-15T02:18:34.388Z,98372.19
2022-12-15T02:21:21.757Z,98397.34
2022-12-15T02:24:27.162Z,98388.28
2022-12-15T02:27:27.861Z,98391.53
2022-12-15T02:30:38.219Z,98393.06
2022-12-15T02:33:32.766Z,98393.41
2022-12-15T02:36:30.942Z,98396.78
2022-12-15T02:39:20.284Z,98396.91
2022-12-15T02:42:17.780Z,98401.16
2022-12-15T02:45:04.277Z,98398.66
2022-12-15T02:47:54.290Z,98393.34
2022-12-15T02:51:33.478Z,98407.75
2022-12-15T02:54:52.113Z,98409.94
2022-12-15T02:57:42.175Z,98409.63
2022-12-15T03:00:37.933Z,98409.13
2022-12-15T03:03:31.346Z,98352.94
2022-12-15T03:06:45.790Z,98416.59
2022-12-15T03:09:35.630Z,98417.47
2022-12-15T03:12:37.280Z,98416.16
2022-12-15T03:15:38.562Z,98424.72
2022-12-15T03:18:29.568Z,98419.47
2022-12-15T03:24:13.048Z,98408.91
2022-12-15T03:27:06.473Z,98427.91
2022-12-15T03:29:53.115Z,98419.09
2022-12-15T03:32:36.831Z,98428.34
2022-12-15T03:35:26.478Z,98436.59
2022-12-15T03:38:02.804Z,98397.25
2022-12-15T03:40:41.349Z,98448.31
2022-12-15T03:43:25.747Z,98461.63
2022-12-15T03:46:21.969Z,98454.56
2022-12-15T03:48:59.837Z,98459.28
2022-12-15T03:51:47.438Z,98445.25
2022-12-15T03:54:41.363Z,98456.25
2022-12-15T03:57:36.437Z,98467.31
2022-12-15T04:00:24.339Z,98443.13
2022-12-15T04:03:08.348Z,98471.59
2022-12-15T04:05:58.410Z,98471.09
2022-12-15T04:11:45.034Z,98473.34
2022-12-15T04:14:35.313Z,98477.97
2022-12-15T04:17:25.671Z,98499.06
2022-12-15T04:23:20.335Z,98485.94
2022-12-15T04:29:31.297Z,98487.78
2022-12-15T04:32:21.698Z,98494.16
2022-12-15T04:35:18.293Z,98487.28
2022-12-15T04:38:10.289Z,98495.19
2022-12-15T04:41:03.155Z,98489.34
2022-12-15T04:44:02.226Z,98489.81
2022-12-15T04:46:57.497Z,98505.38
2022-12-15T04:49:48.105Z,98507.41
2022-12-15T04:52:56.118Z,98504.94
2022-12-15T04:55:48.944Z,98505.19
2022-12-15T04:58:54.405Z,98514.75
2022-12-15T05:02:14.287Z,98504.47
2022-12-15T05:05:15.992Z,98500.75
2022-12-15T05:08:19.137Z,98519.19
2022-12-15T05:11:29.153Z,98528.28
2022-12-15T05:14:23.734Z,98528.56
2022-12-15T05:17:41.110Z,98537.19
2022-12-15T05:20:42.710Z,98488.88
2022-12-15T05:23:31.544Z,98544.91
2022-12-15T05:26:33.235Z,98543.19
2022-12-15T05:29:39.040Z,98552.78
2022-12-15T05:32:44.479Z,98555.00
2022-12-15T05:35:25.978Z,98558.81
2022-12-15T05:38:25.620Z,98552.81
2022-12-15T05:41:11.527Z,98569.09
2022-12-15T05:43:49.572Z,98573.13
2022-12-15T05:46:36.077Z,98583.97
2022-12-15T05:49:33.290Z,98586.84
2022-12-15T05:52:08.290Z,98590.72
2022-12-15T05:54:54.702Z,98595.69
2022-12-15T05:57:32.337Z,98597.09
2022-12-15T06:00:11.341Z,98597.78
2022-12-15T06:06:03.375Z,98608.38
2022-12-15T06:08:58.414Z,98605.53
2022-12-15T06:11:43.202Z,98616.34
2022-12-15T06:14:27.784Z,98617.09
2022-12-15T06:17:12.684Z,98619.66
2022-12-15T06:20:13.075Z,98620.38
2022-12-15T06:23:21.579Z,98621.16
2022-12-15T06:26:08.032Z,98633.47
2022-12-15T06:28:53.580Z,98624.16
2022-12-15T06:31:35.958Z,98631.53
2022-12-15T06:34:23.513Z,98654.75
2022-12-15T06:37:24.835Z,98653.09
2022-12-15T06:40:38.820Z,98660.84
2022-12-15T06:43:32.357Z,98658.81
2022-12-15T06:46:22.023Z,98660.69
2022-12-15T06:49:07.080Z,98651.75
2022-12-15T06:52:08.284Z,98663.47
2022-12-15T06:57:42.341Z,98670.22
2022-12-15T07:00:37.025Z,98675.63
2022-12-15T07:03:36.207Z,98675.38
2022-12-15T07:06:36.417Z,98688.59
2022-12-15T07:09:33.797Z,98694.88
2022-12-15T07:12:14.969Z,98646.63
2022-12-15T07:14:59.508Z,98703.59
2022-12-15T07:21:17.261Z,98709.41
2022-12-15T07:23:56.298Z,98706.69
2022-12-15T07:26:51.378Z,98702.44
2022-12-15T07:29:37.283Z,98703.38
2022-12-15T07:32:15.417Z,98716.44
2022-12-15T07:35:35.549Z,98709.81
2022-12-15T07:38:32.638Z,98710.06
2022-12-15T07:41:16.724Z,98686.63
2022-12-15T07:44:18.948Z,98709.81
2022-12-15T07:47:14.680Z,98706.72
2022-12-15T07:50:03.252Z,98719.88
2022-12-15T07:52:40.746Z,98727.84
2022-12-15T07:55:43.383Z,98727.69
2022-12-15T08:01:23.466Z,98710.59
2022-12-15T08:04:11.340Z,98724.53
2022-12-15T08:06:56.679Z,98696.94
2022-12-15T08:09:50.136Z,98719.22
2022-12-15T08:13:09.732Z,98742.47
2022-12-15T08:18:54.645Z,98756.19
2022-12-15T08:21:32.194Z,98758.69
2022-12-15T08:24:42.719Z,98737.78
2022-12-15T08:28:30.024Z,98772.72
2022-12-15T08:35:46.848Z,98772.72
2022-12-15T08:39:17.635Z,98752.69
2022-12-15T08:42:37.815Z,98773.81
2022-12-15T08:45:30.338Z,98771.28
2022-12-15T08:48:14.757Z,98777.78
2022-12-15T08:51:00.992Z,98777.50
2022-12-15T08:53:51.287Z,98742.75
2022-12-15T09:00:03.770Z,98812.22
2022-12-15T09:02:56.719Z,98809.81
2022-12-15T09:05:43.137Z,98814.88
2022-12-15T09:08:42.253Z,98819.44
2022-12-15T09:11:30.487Z,98813.53
2022-12-15T09:17:25.701Z,98837.69
2022-12-15T09:20:17.912Z,98840.25
2022-12-15T09:23:07.789Z,98844.69
2022-12-15T09:26:03.023Z,98850.66
2022-12-15T09:28:44.728Z,98843.38
2022-12-15T09:31:47.056Z,98786.81
2022-12-15T09:34:34.747Z,98839.06
2022-12-15T09:37:51.990Z,98854.19
2022-12-15T09:40:34.285Z,98855.91
2022-12-15T09:43:37.893Z,98862.59
2022-12-15T09:47:10.794Z,98864.00
2022-12-15T09:50:13.458Z,98870.88
2022-12-15T09:53:53.568Z,98863.59
2022-12-15T09:56:44.062Z,98814.06
2022-12-15T09:59:54.432Z,98871.28
2022-12-15T10:03:32.341Z,98879.53
2022-12-15T10:06:29.803Z,98886.84
2022-12-15T10:12:30.514Z,98832.13
2022-12-15T10:18:23.039Z,98884.56
2022-12-15T10:21:13.894Z,98896.97
2022-12-15T10:23:50.684Z,98894.44
2022-12-15T10:30:34.779Z,98885.72
2022-12-15T10:33:28.363Z,98894.97
2022-12-15T10:36:08.570Z,98915.06
2022-12-15T10:39:16.150Z,98903.84
2022-12-15T10:46:36.277Z,98888.53
2022-12-15T10:50:08.142Z,98906.53
2022-12-15T10:54:00.377Z,98900.00
2022-12-15T11:04:35.866Z,98911.88
2022-12-15T11:07:24.484Z,98807.13
2022-12-15T11:10:14.287Z,98914.66
2022-12-15T11:13:08.359Z,98865.34
2022-12-15T11:15:56.557Z,98930.81
2022-12-15T11:18:53.927Z,98931.53
2022-12-15T11:21:56.601Z,98922.94
2022-12-15T11:24:39.869Z,98918.78
2022-12-15T11:27:33.559Z,98935.25
2022-12-15T11:30:19.559Z,98921.94
2022-12-15T11:33:12.304Z,98939.38
2022-12-15T11:36:05.685Z,98923.69
2022-12-15T11:38:49.250Z,98857.84
2022-12-15T11:41:51.531Z,98950.28
2022-12-15T11:44:51.942Z,98952.06
2022-12-15T11:48:06.676Z,98909.28
2022-12-15T11:51:33.492Z,98951.97
2022-12-15T11:58:13.067Z,98981.97
2022-12-15T12:00:59.655Z,98976.31
2022-12-15T12:03:53.021Z,98976.56
2022-12-15T12:06:47.094Z,98993.38
2022-12-15T12:09:42.337Z,98973.03
2022-12-15T12:12:39.114Z,98978.25
2022-12-15T12:15:42.930Z,98994.03
2022-12-15T12:18:43.414Z,98950.38
2022-12-15T12:21:34.749Z,98859.66
2022-12-15T12:24:20.056Z,98989.00
2022-12-15T12:27:16.909Z,98991.50
2022-12-15T12:30:06.900Z,98995.94
2022-12-15T12:36:12.623Z,98991.69
2022-12-15T12:39:15.281Z,98996.28
2022-12-15T12:42:03.690Z,99005.56
2022-12-15T12:44:55.486Z,98997.09
2022-12-15T12:47:45.392Z,99007.88
2022-12-15T12:50:31.042Z,99014.16
2022-12-15T12:53:32.810Z,99007.38
2022-12-15T12:56:35.603Z,99020.97
2022-12-15T13:00:07.393Z,99017.91
2022-12-15T13:03:41.854Z,99037.34
2022-12-15T13:07:15.972Z,99038.56
2022-12-15T13:10:29.136Z,99035.63
2022-12-15T13:13:30.193Z,99042.38
2022-12-15T13:16:18.252Z,99042.38
2022-12-15T13:19:10.756Z,99040.81
2022-12-15T13:22:17.647Z,99049.84
2022-12-15T13:25:09.001Z,99049.09
2022-12-15T13:27:51.675Z,99052.63
2022-12-15T13:30:33.506Z,99055.22
2022-12-15T13:33:28.838Z,99041.03
2022-12-15T13:36:06.802Z,99067.91
2022-12-15T13:39:02.538Z,99011.19
2022-12-15T13:42:15.370Z,99069.84
2022-12-15T13:44:57.710Z,99069.28
2022-12-15T13:47:47.493Z,98913.78
2022-12-15T13:50:56.523Z,98931.19
2022-12-15T13:53:52.790Z,99072.25
2022-12-15T13:59:50.573Z,99070.50
2022-12-15T14:02:43.656Z,99082.59
2022-12-15T14:05:48.812Z,98995.94
2022-12-15T14:08:34.157Z,99086.34
2022-12-15T14:11:52.068Z,99092.44
2022-12-15T14:14:39.246Z,99107.00
2022-12-15T14:17:50.519Z,99106.25
2022-12-15T14:20:34.017Z,99112.59
2022-12-15T14:24:37.098Z,99113.72
2022-12-15T14:27:01.454Z,99097.38
2022-12-15T14:29:59.289Z,99045.22
2022-12-15T14:33:06.642Z,99111.88
2022-12-15T14:36:25.401Z,99052.13
2022-12-15T14:39:25.057Z,99111.97
2022-12-15T14:46:16.980Z,99128.13
2022-12-15T14:53:30.907Z,99122.19
2022-12-15T14:56:34.349Z,99130.56
2022-12-15T14:59:36.971Z,99134.91
2022-12-15T15:02:28.800Z,99131.91
2022-12-15T15:05:15.561Z,99107.81
2022-12-15T15:08:07.405Z,99149.63
2022-12-15T15:11:04.186Z,99131.66
2022-12-15T15:13:54.181Z,99147.88
2022-12-15T15:16:40.935Z,99157.91
2022-12-15T15:19:40.126Z,99113.47
2022-12-15T15:22:55.261Z,99146.53
2022-12-15T15:25:48.140Z,99149.63
2022-12-15T15:28:35.154Z,99130.56
2022-12-15T15:31:40.845Z,99142.88
2022-12-15T15:34:25.369Z,99116.50
2022-12-15T15:37:04.167Z,99135.78
2022-12-15T15:39:57.071Z,99130.50
2022-12-15T15:42:35.206Z,99117.72
2022-12-15T15:45:15.130Z,99130.94
2022-12-15T15:47:59.328Z,99133.09
2022-12-15T15:50:45.863Z,99060.88
2022-12-15T15:53:51.395Z,99017.13
2022-12-15T15:56:31.320Z,99136.72
2022-12-15T15:59:32.560Z,99135.28
2022-12-15T16:02:14.988Z,99136.72
2022-12-15T16:04:56.493Z,99136.38
2022-12-15T16:08:09.826Z,99133.66
2022-12-15T16:10:52.516Z,99136.34
2022-12-15T16:13:38.848Z,99140.72
2022-12-15T16:16:48.720Z,99132.16
2022-12-15T16:19:23.353Z,99138.47
2022-12-15T16:22:12.155Z,99143.22
2022-12-15T16:25:04.444Z,99133.25
2022-12-15T16:27:47.437Z,99125.88
2022-12-15T16:30:33.265Z,99131.53
2022-12-15T16:33:20.870Z,99134.00
2022-12-15T16:36:16.918Z,99139.34
2022-12-15T16:39:12.577Z,99136.94
2022-12-15T16:42:12.090Z,99136.94
2022-12-15T16:44:51.389Z,99136.78
2022-12-15T16:47:39.103Z,99137.22
2022-12-15T16:50:17.693Z,99152.34
2022-12-15T16:59:32.673Z,99145.50
2022-12-15T17:02:35.933Z,99137.91
2022-12-15T17:05:31.633Z,99142.03
2022-12-15T17:08:29.877Z,98982.06
2022-12-15T17:11:27.680Z,99143.31
2022-12-15T17:14:14.789Z,99132.00
2022-12-15T17:16:58.268Z,99116.34
2022-12-15T17:23:06.760Z,99142.22
2022-12-15T17:26:25.810Z,99135.06
2022-12-15T17:29:36.757Z,99121.13
2022-12-15T17:32:25.173Z,99140.50
2022-12-15T17:35:10.298Z,99137.00
2022-12-15T17:37:49.700Z,99137.41
2022-12-15T17:40:36.835Z,99138.03
2022-12-15T17:44:09.842Z,99107.94
2022-12-15T17:47:25.819Z,99112.34
2022-12-15T17:50:10.722Z,99113.47
2022-12-15T17:53:04.268Z,99110.38
2022-12-15T17:58:36.692Z,99119.31
2022-12-15T18:01:25.205Z,99122.94
2022-12-15T18:04:18.353Z,99116.69
2022-12-15T18:07:09.346Z,99134.88
2022-12-15T18:09:51.829Z,99122.38
2022-12-15T18:12:52.274Z,99128.03
2022-12-15T18:15:38.172Z,99128.03
2022-12-15T18:21:30.016Z,99090.69
2022-12-15T18:24:15.497Z,99109.28
2022-12-15T18:26:54.000Z,99120.31
2022-12-15T18:29:45.587Z,99116.69
2022-12-15T18:32:27.071Z,99119.19
2022-12-15T18:35:10.291Z,99116.31
2022-12-15T18:38:16.647Z,99125.31
2022-12-15T18:40:55.801Z,99129.19
2022-12-15T18:43:40.260Z,99071.75
2022-12-15T18:46:26.519Z,99125.41
2022-12-15T18:49:05.210Z,99109.03
2022-12-15T18:51:54.706Z,99114.13
2022-12-15T18:55:19.388Z,99117.84
2022-12-15T18:58:08.424Z,99096.41
2022-12-15T19:01:17.872Z,99114.13
2022-12-15T19:04:00.378Z,99123.78
2022-12-15T19:06:58.236Z,99105.81
2022-12-15T19:09:46.401Z,99116.53
2022-12-15T19:12:40.565Z,99112.94
2022-12-15T19:15:35.366Z,99113.44
2022-12-15T19:18:31.833Z,99135.06
2022-12-15T19:21:44.249Z,99123.00
2022-12-15T19:24:44.424Z,99137.94
2022-12-15T19:27:49.259Z,99131.00
2022-12-15T19:30:26.879Z,99137.94
2022-12-15T19:33:03.193Z,99138.09
2022-12-15T19:36:04.427Z,99131.09
2022-12-15T19:38:44.471Z,99119.38
2022-12-15T19:41:28.083Z,99114.69
2022-12-15T19:44:23.958Z,99111.22
2022-12-15T19:47:06.767Z,99132.38
2022-12-15T19:50:05.446Z,99060.53
2022-12-15T19:52:53.622Z,99136.03
2022-12-15T19:55:55.863Z,99075.31
2022-12-15T19:58:42.838Z,99050.81
2022-12-15T20:01:29.383Z,99152.88
2022-12-15T20:04:18.381Z,99148.03
2022-12-15T20:07:02.843Z,99147.66
2022-12-15T20:10:32.381Z,99155.81
2022-12-15T20:13:39.427Z,99155.66
2022-12-15T20:16:46.293Z,99146.03
2022-12-15T20:19:53.819Z,99159.47
2022-12-15T20:22:44.867Z,99147.81
2022-12-15T20:25:45.545Z,99152.56
2022-12-15T20:28:31.151Z,99155.44
2022-12-15T20:31:14.137Z,99113.06
2022-12-15T20:34:04.464Z,99137.34
2022-12-15T20:36:40.829Z,99144.56
2022-12-15T20:39:38.590Z,99146.63
2022-12-15T20:42:31.531Z,99140.53
2022-12-15T20:45:12.977Z,99130.91
2022-12-15T20:51:11.913Z,99153.56
2022-12-15T20:54:03.198Z,99153.16
2022-12-15T20:56:40.194Z,99125.25
2022-12-15T20:59:18.976Z,99162.06
2022-12-15T21:13:24.757Z,99148.53
2022-12-15T21:16:34.416Z,99153.44
2022-12-15T21:19:32.876Z,99162.25
2022-12-15T21:22:27.672Z,99160.38
2022-12-15T21:25:33.924Z,99168.19
2022-12-15T21:28:41.834Z,99170.78
2022-12-15T21:31:36.834Z,99167.25
2022-12-15T21:34:24.516Z,99139.59
2022-12-15T21:37:16.691Z,99146.00
2022-12-15T21:40:06.920Z,99156.63
2022-12-15T21:42:49.338Z,99153.09
2022-12-15T21:45:29.287Z,99160.00
2022-12-15T21:51:36.447Z,99170.91
2022-12-15T21:54:23.680Z,99170.28
2022-12-15T21:57:19.903Z,99160.81
2022-12-15T22:00:11.238Z,99184.50
2022-12-15T22:03:03.266Z,99169.97
2022-12-15T22:11:41.225Z,99175.81
2022-12-15T22:14:43.218Z,99200.25
2022-12-15T22:17:26.325Z,99183.19
2022-12-15T22:20:11.987Z,99201.44
2022-12-15T22:22:50.293Z,99209.06
2022-12-15T22:28:30.089Z,99199.97
2022-12-15T22:31:13.284Z,99215.75
2022-12-15T22:34:00.533Z,99219.41
2022-12-15T22:39:48.799Z,99222.97
2022-12-15T22:42:46.777Z,99231.78
2022-12-15T22:45:57.564Z,99230.47
2022-12-15T22:48:35.665Z,99229.31
2022-12-15T22:51:21.863Z,99226.16
2022-12-15T22:57:00.317Z,99230.69
2022-12-15T22:59:48.380Z,99238.00
2022-12-15T23:02:49.100Z,99243.69
2022-12-15T23:05:37.144Z,99245.13
2022-12-15T23:08:31.039Z,99244.63
2022-12-15T23:11:40.741Z,99248.09
2022-12-15T23:14:49.750Z,99241.59
2022-12-15T23:21:01.137Z,99257.03
2022-12-15T23:23:45.141Z,99269.88
2022-12-15T23:26:48.169Z,99232.16
2022-12-15T23:29:34.857Z,99252.00
2022-12-15T23:32:31.208Z,99278.84
2022-12-15T23:35:10.479Z,99278.25
